sensor_id;sensor_type;location;lat;lon;timestamp;temperature;humidity
42663;DHT22;44330;51.360;6.686;2022-11-20T00:00:42;0.20;78.10
42663;DHT22;44330;51.360;6.686;2022-11-20T00:03:07;0.20;78.00
42663;DHT22;44330;51.360;6.686;2022-11-20T00:05:33;0.10;77.70
42663;DHT22;44330;51.360;6.686;2022-11-20T00:07:58;0.00;77.80
42663;DHT22;44330;51.360;6.686;2022-11-20T00:10:24;0.00;78.00
42663;DHT22;44330;51.360;6.686;2022-11-20T00:12:49;0.00;78.60
42663;DHT22;44330;51.360;6.686;2022-11-20T00:15:15;-0.10;79.10
42663;DHT22;44330;51.360;6.686;2022-11-20T00:17:40;-0.10;78.50
42663;DHT22;44330;51.360;6.686;2022-11-20T00:20:06;-0.10;78.40
42663;DHT22;44330;51.360;6.686;2022-11-20T00:22:32;-0.20;78.60
42663;DHT22;44330;51.360;6.686;2022-11-20T00:24:57;-0.20;79.10
42663;DHT22;44330;51.360;6.686;2022-11-20T00:27:23;-0.20;79.20
42663;DHT22;44330;51.360;6.686;2022-11-20T00:29:49;-0.20;79.40
42663;DHT22;44330;51.360;6.686;2022-11-20T00:32:14;-0.30;79.60
42663;DHT22;44330;51.360;6.686;2022-11-20T00:34:40;-0.30;79.90
42663;DHT22;44330;51.360;6.686;2022-11-20T00:37:05;-0.30;80.00
42663;DHT22;44330;51.360;6.686;2022-11-20T00:39:31;-0.30;80.50
42663;DHT22;44330;51.360;6.686;2022-11-20T00:41:56;-0.20;80.90
42663;DHT22;44330;51.360;6.686;2022-11-20T00:44:22;-0.20;81.00
42663;DHT22;44330;51.360;6.686;2022-11-20T00:46:47;-0.20;81.20
42663;DHT22;44330;51.360;6.686;2022-11-20T00:49:13;-0.20;81.60
42663;DHT22;44330;51.360;6.686;2022-11-20T00:51:38;-0.10;81.90
42663;DHT22;44330;51.360;6.686;2022-11-20T00:54:04;-0.10;82.00
42663;DHT22;44330;51.360;6.686;2022-11-20T00:56:30;-0.10;82.10
42663;DHT22;44330;51.360;6.686;2022-11-20T00:58:55;-0.10;82.10
42663;DHT22;44330;51.360;6.686;2022-11-20T01:01:25;-0.10;82.20
42663;DHT22;44330;51.360;6.686;2022-11-20T01:03:52;0.00;82.20
42663;DHT22;44330;51.360;6.686;2022-11-20T01:06:23;0.00;82.30
42663;DHT22;44330;51.360;6.686;2022-11-20T01:08:51;0.00;82.30
42663;DHT22;44330;51.360;6.686;2022-11-20T01:11:22;0.00;82.40
42663;DHT22;44330;51.360;6.686;2022-11-20T01:13:50;0.10;82.50
42663;DHT22;44330;51.360;6.686;2022-11-20T01:16:22;0.10;82.70
42663;DHT22;44330;51.360;6.686;2022-11-20T01:18:50;0.10;83.00
42663;DHT22;44330;51.360;6.686;2022-11-20T01:23:43;0.20;82.70
42663;DHT22;44330;51.360;6.686;2022-11-20T01:26:15;0.20;82.80
42663;DHT22;44330;51.360;6.686;2022-11-20T01:28:42;0.30;82.80
42663;DHT22;44330;51.360;6.686;2022-11-20T01:31:13;0.30;83.00
42663;DHT22;44330;51.360;6.686;2022-11-20T01:33:39;0.40;83.10
42663;DHT22;44330;51.360;6.686;2022-11-20T01:36:07;0.30;82.60
42663;DHT22;44330;51.360;6.686;2022-11-20T01:38:33;0.40;82.60
42663;DHT22;44330;51.360;6.686;2022-11-20T01:40:58;0.40;82.70
42663;DHT22;44330;51.360;6.686;2022-11-20T01:43:24;0.40;82.60
42663;DHT22;44330;51.360;6.686;2022-11-20T01:48:33;0.30;81.70
42663;DHT22;44330;51.360;6.686;2022-11-20T01:51:00;0.30;82.10
42663;DHT22;44330;51.360;6.686;2022-11-20T01:53:32;0.40;82.30
42663;DHT22;44330;51.360;6.686;2022-11-20T01:56:00;0.30;82.40
42663;DHT22;44330;51.360;6.686;2022-11-20T01:58:33;0.30;82.70
42663;DHT22;44330;51.360;6.686;2022-11-20T02:01:00;0.30;83.00
42663;DHT22;44330;51.360;6.686;2022-11-20T02:03:26;0.30;83.10
42663;DHT22;44330;51.360;6.686;2022-11-20T02:05:57;0.40;83.50
42663;DHT22;44330;51.360;6.686;2022-11-20T02:08:25;0.40;83.00
42663;DHT22;44330;51.360;6.686;2022-11-20T02:10:51;0.40;82.90
42663;DHT22;44330;51.360;6.686;2022-11-20T02:13:16;0.50;82.90
42663;DHT22;44330;51.360;6.686;2022-11-20T02:16:01;0.50;83.10
42663;DHT22;44330;51.360;6.686;2022-11-20T02:18:27;0.50;82.80
42663;DHT22;44330;51.360;6.686;2022-11-20T02:21:07;0.50;81.50
42663;DHT22;44330;51.360;6.686;2022-11-20T02:24:06;0.50;81.50
42663;DHT22;44330;51.360;6.686;2022-11-20T02:26:47;0.60;81.90
42663;DHT22;44330;51.360;6.686;2022-11-20T02:29:16;0.70;82.40
42663;DHT22;44330;51.360;6.686;2022-11-20T02:31:44;0.70;82.40
42663;DHT22;44330;51.360;6.686;2022-11-20T02:34:10;0.70;82.50
42663;DHT22;44330;51.360;6.686;2022-11-20T02:36:36;0.80;82.80
42663;DHT22;44330;51.360;6.686;2022-11-20T02:39:04;0.80;82.60
42663;DHT22;44330;51.360;6.686;2022-11-20T02:41:36;0.90;82.90
42663;DHT22;44330;51.360;6.686;2022-11-20T02:44:03;0.90;83.40
42663;DHT22;44330;51.360;6.686;2022-11-20T02:46:28;0.90;83.00
42663;DHT22;44330;51.360;6.686;2022-11-20T02:48:54;0.90;82.60
42663;DHT22;44330;51.360;6.686;2022-11-20T02:51:20;0.90;83.20
42663;DHT22;44330;51.360;6.686;2022-11-20T02:53:45;0.90;83.70
42663;DHT22;44330;51.360;6.686;2022-11-20T02:56:11;0.90;84.30
42663;DHT22;44330;51.360;6.686;2022-11-20T02:58:36;0.90;85.10
42663;DHT22;44330;51.360;6.686;2022-11-20T03:01:02;0.90;85.30
42663;DHT22;44330;51.360;6.686;2022-11-20T03:03:27;0.90;85.50
42663;DHT22;44330;51.360;6.686;2022-11-20T03:05:53;1.00;85.60
42663;DHT22;44330;51.360;6.686;2022-11-20T03:08:18;1.00;85.40
42663;DHT22;44330;51.360;6.686;2022-11-20T03:10:44;1.00;85.50
42663;DHT22;44330;51.360;6.686;2022-11-20T03:13:09;1.00;85.60
42663;DHT22;44330;51.360;6.686;2022-11-20T03:15:36;1.10;85.60
42663;DHT22;44330;51.360;6.686;2022-11-20T03:18:02;1.10;85.50
42663;DHT22;44330;51.360;6.686;2022-11-20T03:20:27;1.10;84.90
42663;DHT22;44330;51.360;6.686;2022-11-20T03:22:54;1.10;84.90
42663;DHT22;44330;51.360;6.686;2022-11-20T03:25:19;1.10;84.70
42663;DHT22;44330;51.360;6.686;2022-11-20T03:27:45;1.10;84.60
42663;DHT22;44330;51.360;6.686;2022-11-20T03:30:10;1.10;84.90
42663;DHT22;44330;51.360;6.686;2022-11-20T03:32:36;1.10;84.60
42663;DHT22;44330;51.360;6.686;2022-11-20T03:35:02;1.10;83.50
42663;DHT22;44330;51.360;6.686;2022-11-20T03:37:27;1.10;83.70
42663;DHT22;44330;51.360;6.686;2022-11-20T03:39:53;1.10;84.00
42663;DHT22;44330;51.360;6.686;2022-11-20T03:42:18;1.10;84.10
42663;DHT22;44330;51.360;6.686;2022-11-20T03:45:03;1.20;84.40
42663;DHT22;44330;51.360;6.686;2022-11-20T03:47:29;1.20;84.00
42663;DHT22;44330;51.360;6.686;2022-11-20T03:49:54;1.30;84.30
42663;DHT22;44330;51.360;6.686;2022-11-20T03:52:20;1.30;84.50
42663;DHT22;44330;51.360;6.686;2022-11-20T03:54:45;1.30;84.00
42663;DHT22;44330;51.360;6.686;2022-11-20T03:57:11;1.30;83.90
42663;DHT22;44330;51.360;6.686;2022-11-20T03:59:36;1.30;84.10
42663;DHT22;44330;51.360;6.686;2022-11-20T04:02:02;1.40;84.30
42663;DHT22;44330;51.360;6.686;2022-11-20T04:04:27;1.40;84.40
42663;DHT22;44330;51.360;6.686;2022-11-20T04:06:53;1.40;84.20
42663;DHT22;44330;51.360;6.686;2022-11-20T04:09:18;1.40;84.40
42663;DHT22;44330;51.360;6.686;2022-11-20T04:11:44;1.40;84.30
42663;DHT22;44330;51.360;6.686;2022-11-20T04:14:14;1.50;84.50
42663;DHT22;44330;51.360;6.686;2022-11-20T04:16:40;1.50;84.50
42663;DHT22;44330;51.360;6.686;2022-11-20T04:19:09;1.50;84.30
42663;DHT22;44330;51.360;6.686;2022-11-20T04:21:35;1.50;83.80
42663;DHT22;44330;51.360;6.686;2022-11-20T04:24:01;1.50;83.20
42663;DHT22;44330;51.360;6.686;2022-11-20T04:26:29;1.50;82.50
42663;DHT22;44330;51.360;6.686;2022-11-20T04:28:55;1.50;82.20
42663;DHT22;44330;51.360;6.686;2022-11-20T04:31:23;1.60;81.50
42663;DHT22;44330;51.360;6.686;2022-11-20T04:33:49;1.50;80.90
42663;DHT22;44330;51.360;6.686;2022-11-20T04:36:25;1.60;79.80
42663;DHT22;44330;51.360;6.686;2022-11-20T04:38:53;1.50;78.20
42663;DHT22;44330;51.360;6.686;2022-11-20T04:41:22;1.50;77.70
42663;DHT22;44330;51.360;6.686;2022-11-20T04:43:48;1.50;78.30
42663;DHT22;44330;51.360;6.686;2022-11-20T04:46:15;1.50;77.80
42663;DHT22;44330;51.360;6.686;2022-11-20T04:48:41;1.40;77.70
42663;DHT22;44330;51.360;6.686;2022-11-20T04:51:06;1.40;77.70
42663;DHT22;44330;51.360;6.686;2022-11-20T04:53:32;1.40;78.70
42663;DHT22;44330;51.360;6.686;2022-11-20T04:56:05;1.40;79.10
42663;DHT22;44330;51.360;6.686;2022-11-20T04:58:31;1.40;79.50
42663;DHT22;44330;51.360;6.686;2022-11-20T05:01:14;1.40;79.80
42663;DHT22;44330;51.360;6.686;2022-11-20T05:03:41;1.40;80.20
42663;DHT22;44330;51.360;6.686;2022-11-20T05:06:07;1.40;80.60
42663;DHT22;44330;51.360;6.686;2022-11-20T05:08:33;1.40;80.70
42663;DHT22;44330;51.360;6.686;2022-11-20T05:11:07;1.40;80.90
42663;DHT22;44330;51.360;6.686;2022-11-20T05:13:33;1.40;81.50
42663;DHT22;44330;51.360;6.686;2022-11-20T05:16:07;1.40;82.10
42663;DHT22;44330;51.360;6.686;2022-11-20T05:18:34;1.50;82.50
42663;DHT22;44330;51.360;6.686;2022-11-20T05:20:59;1.50;82.40
42663;DHT22;44330;51.360;6.686;2022-11-20T05:23:25;1.50;82.30
42663;DHT22;44330;51.360;6.686;2022-11-20T05:25:55;1.50;82.40
42663;DHT22;44330;51.360;6.686;2022-11-20T05:28:21;1.50;82.70
42663;DHT22;44330;51.360;6.686;2022-11-20T05:30:47;1.60;82.90
42663;DHT22;44330;51.360;6.686;2022-11-20T05:33:13;1.60;82.90
42663;DHT22;44330;51.360;6.686;2022-11-20T05:35:38;1.60;82.70
42663;DHT22;44330;51.360;6.686;2022-11-20T05:38:04;1.60;82.50
42663;DHT22;44330;51.360;6.686;2022-11-20T05:40:29;1.50;82.10
42663;DHT22;44330;51.360;6.686;2022-11-20T05:42:55;1.50;82.30
42663;DHT22;44330;51.360;6.686;2022-11-20T05:45:20;1.60;82.50
42663;DHT22;44330;51.360;6.686;2022-11-20T05:47:46;1.60;82.60
42663;DHT22;44330;51.360;6.686;2022-11-20T05:50:11;1.50;82.30
42663;DHT22;44330;51.360;6.686;2022-11-20T05:52:37;1.60;82.60
42663;DHT22;44330;51.360;6.686;2022-11-20T05:55:03;1.60;82.60
42663;DHT22;44330;51.360;6.686;2022-11-20T05:57:28;1.60;82.60
42663;DHT22;44330;51.360;6.686;2022-11-20T05:59:54;1.60;82.70
42663;DHT22;44330;51.360;6.686;2022-11-20T06:02:19;1.60;83.10
42663;DHT22;44330;51.360;6.686;2022-11-20T06:04:45;1.70;83.00
42663;DHT22;44330;51.360;6.686;2022-11-20T06:07:10;1.70;82.80
42663;DHT22;44330;51.360;6.686;2022-11-20T06:09:36;1.60;82.50
42663;DHT22;44330;51.360;6.686;2022-11-20T06:12:01;1.70;82.70
42663;DHT22;44330;51.360;6.686;2022-11-20T06:14:27;1.70;82.70
42663;DHT22;44330;51.360;6.686;2022-11-20T06:16:52;1.70;82.40
42663;DHT22;44330;51.360;6.686;2022-11-20T06:19:18;1.70;81.90
42663;DHT22;44330;51.360;6.686;2022-11-20T06:21:43;1.70;81.50
42663;DHT22;44330;51.360;6.686;2022-11-20T06:24:10;1.60;81.20
42663;DHT22;44330;51.360;6.686;2022-11-20T06:26:36;1.60;81.80
42663;DHT22;44330;51.360;6.686;2022-11-20T06:29:01;1.50;82.80
42663;DHT22;44330;51.360;6.686;2022-11-20T06:31:28;1.60;83.30
42663;DHT22;44330;51.360;6.686;2022-11-20T06:33:55;1.70;83.40
42663;DHT22;44330;51.360;6.686;2022-11-20T06:36:21;1.70;83.20
42663;DHT22;44330;51.360;6.686;2022-11-20T06:38:48;1.70;83.30
42663;DHT22;44330;51.360;6.686;2022-11-20T06:41:16;1.70;83.50
42663;DHT22;44330;51.360;6.686;2022-11-20T06:43:42;1.70;83.60
42663;DHT22;44330;51.360;6.686;2022-11-20T06:46:10;1.70;83.80
42663;DHT22;44330;51.360;6.686;2022-11-20T06:48:36;1.80;84.10
42663;DHT22;44330;51.360;6.686;2022-11-20T06:51:06;1.80;84.30
42663;DHT22;44330;51.360;6.686;2022-11-20T06:53:32;1.80;84.50
42663;DHT22;44330;51.360;6.686;2022-11-20T06:55:57;1.80;84.70
42663;DHT22;44330;51.360;6.686;2022-11-20T06:58:25;1.90;84.90
42663;DHT22;44330;51.360;6.686;2022-11-20T07:00:51;1.90;85.00
42663;DHT22;44330;51.360;6.686;2022-11-20T07:03:17;1.90;85.30
42663;DHT22;44330;51.360;6.686;2022-11-20T07:05:42;1.90;85.70
42663;DHT22;44330;51.360;6.686;2022-11-20T07:08:09;1.90;85.70
42663;DHT22;44330;51.360;6.686;2022-11-20T07:10:35;1.90;85.50
42663;DHT22;44330;51.360;6.686;2022-11-20T07:13:00;1.90;85.30
42663;DHT22;44330;51.360;6.686;2022-11-20T07:15:26;1.80;85.20
42663;DHT22;44330;51.360;6.686;2022-11-20T07:17:52;1.80;85.40
42663;DHT22;44330;51.360;6.686;2022-11-20T07:20:17;1.70;85.70
42663;DHT22;44330;51.360;6.686;2022-11-20T07:22:43;1.80;85.50
42663;DHT22;44330;51.360;6.686;2022-11-20T07:25:09;1.70;85.70
42663;DHT22;44330;51.360;6.686;2022-11-20T07:27:35;1.70;86.00
42663;DHT22;44330;51.360;6.686;2022-11-20T07:30:01;1.70;86.20
42663;DHT22;44330;51.360;6.686;2022-11-20T07:32:26;1.70;86.10
42663;DHT22;44330;51.360;6.686;2022-11-20T07:34:52;1.80;86.40
42663;DHT22;44330;51.360;6.686;2022-11-20T07:37:17;1.70;86.50
42663;DHT22;44330;51.360;6.686;2022-11-20T07:39:43;1.70;86.60
42663;DHT22;44330;51.360;6.686;2022-11-20T07:42:09;1.70;87.00
42663;DHT22;44330;51.360;6.686;2022-11-20T07:44:35;1.70;87.20
42663;DHT22;44330;51.360;6.686;2022-11-20T07:47:01;1.80;87.40
42663;DHT22;44330;51.360;6.686;2022-11-20T07:49:27;1.80;87.60
42663;DHT22;44330;51.360;6.686;2022-11-20T07:51:53;1.80;87.70
42663;DHT22;44330;51.360;6.686;2022-11-20T07:54:20;1.90;87.90
42663;DHT22;44330;51.360;6.686;2022-11-20T07:56:46;1.90;88.00
42663;DHT22;44330;51.360;6.686;2022-11-20T07:59:12;1.90;88.10
42663;DHT22;44330;51.360;6.686;2022-11-20T08:01:38;2.00;88.20
42663;DHT22;44330;51.360;6.686;2022-11-20T08:04:04;2.00;88.20
42663;DHT22;44330;51.360;6.686;2022-11-20T08:06:29;2.10;88.20
42663;DHT22;44330;51.360;6.686;2022-11-20T08:08:55;2.10;87.80
42663;DHT22;44330;51.360;6.686;2022-11-20T08:11:20;2.20;87.50
42663;DHT22;44330;51.360;6.686;2022-11-20T08:14:04;2.20;86.80
42663;DHT22;44330;51.360;6.686;2022-11-20T08:16:40;2.30;86.10
42663;DHT22;44330;51.360;6.686;2022-11-20T08:19:06;2.30;86.00
42663;DHT22;44330;51.360;6.686;2022-11-20T08:21:32;2.40;85.60
42663;DHT22;44330;51.360;6.686;2022-11-20T08:23:58;2.40;83.50
42663;DHT22;44330;51.360;6.686;2022-11-20T08:26:25;2.40;83.40
42663;DHT22;44330;51.360;6.686;2022-11-20T08:28:57;2.40;83.80
42663;DHT22;44330;51.360;6.686;2022-11-20T08:31:24;2.50;83.90
42663;DHT22;44330;51.360;6.686;2022-11-20T08:33:50;2.60;83.80
42663;DHT22;44330;51.360;6.686;2022-11-20T08:36:17;2.60;83.50
42663;DHT22;44330;51.360;6.686;2022-11-20T08:38:50;2.60;83.10
42663;DHT22;44330;51.360;6.686;2022-11-20T08:41:16;2.70;82.80
42663;DHT22;44330;51.360;6.686;2022-11-20T08:43:59;2.70;82.70
42663;DHT22;44330;51.360;6.686;2022-11-20T08:46:27;2.70;82.20
42663;DHT22;44330;51.360;6.686;2022-11-20T08:48:53;2.80;81.80
42663;DHT22;44330;51.360;6.686;2022-11-20T08:51:20;2.90;81.40
42663;DHT22;44330;51.360;6.686;2022-11-20T08:53:46;3.00;80.80
42663;DHT22;44330;51.360;6.686;2022-11-20T08:56:14;3.00;80.20
42663;DHT22;44330;51.360;6.686;2022-11-20T08:58:39;3.00;80.20
42663;DHT22;44330;51.360;6.686;2022-11-20T09:01:05;3.10;80.40
42663;DHT22;44330;51.360;6.686;2022-11-20T09:03:31;3.10;80.20
42663;DHT22;44330;51.360;6.686;2022-11-20T09:05:58;3.10;79.60
42663;DHT22;44330;51.360;6.686;2022-11-20T09:08:24;3.10;79.40
42663;DHT22;44330;51.360;6.686;2022-11-20T09:10:53;3.30;79.30
42663;DHT22;44330;51.360;6.686;2022-11-20T09:13:20;3.40;76.70
42663;DHT22;44330;51.360;6.686;2022-11-20T09:15:46;3.40;75.10
42663;DHT22;44330;51.360;6.686;2022-11-20T09:18:12;3.50;74.20
42663;DHT22;44330;51.360;6.686;2022-11-20T09:20:38;3.60;73.80
42663;DHT22;44330;51.360;6.686;2022-11-20T09:23:04;3.60;73.80
42663;DHT22;44330;51.360;6.686;2022-11-20T09:25:29;3.70;72.60
42663;DHT22;44330;51.360;6.686;2022-11-20T09:27:58;3.70;72.20
42663;DHT22;44330;51.360;6.686;2022-11-20T09:30:24;3.70;72.40
42663;DHT22;44330;51.360;6.686;2022-11-20T09:32:50;3.80;72.80
42663;DHT22;44330;51.360;6.686;2022-11-20T09:35:15;3.80;73.20
42663;DHT22;44330;51.360;6.686;2022-11-20T09:37:41;3.80;73.00
42663;DHT22;44330;51.360;6.686;2022-11-20T09:40:09;3.90;72.50
42663;DHT22;44330;51.360;6.686;2022-11-20T09:45:23;3.90;71.10
42663;DHT22;44330;51.360;6.686;2022-11-20T09:48:20;4.00;70.90
42663;DHT22;44330;51.360;6.686;2022-11-20T09:50:54;4.10;68.30
42663;DHT22;44330;51.360;6.686;2022-11-20T09:53:40;4.20;66.80
42663;DHT22;44330;51.360;6.686;2022-11-20T09:56:11;4.20;65.60
42663;DHT22;44330;51.360;6.686;2022-11-20T09:58:43;4.30;63.40
42663;DHT22;44330;51.360;6.686;2022-11-20T10:01:18;4.40;61.80
42663;DHT22;44330;51.360;6.686;2022-11-20T10:04:19;4.50;59.60
42663;DHT22;44330;51.360;6.686;2022-11-20T10:07:06;4.60;58.10
42663;DHT22;44330;51.360;6.686;2022-11-20T10:09:39;4.70;58.80
42663;DHT22;44330;51.360;6.686;2022-11-20T10:12:13;4.70;59.10
42663;DHT22;44330;51.360;6.686;2022-11-20T10:14:57;4.70;59.70
42663;DHT22;44330;51.360;6.686;2022-11-20T10:25:38;4.80;61.60
42663;DHT22;44330;51.360;6.686;2022-11-20T10:30:43;4.80;62.90
42663;DHT22;44330;51.360;6.686;2022-11-20T10:33:18;4.90;64.00
42663;DHT22;44330;51.360;6.686;2022-11-20T10:36:13;5.00;63.00
42663;DHT22;44330;51.360;6.686;2022-11-20T10:38:46;5.00;62.10
42663;DHT22;44330;51.360;6.686;2022-11-20T10:41:26;5.00;58.70
42663;DHT22;44330;51.360;6.686;2022-11-20T10:44:09;5.00;59.70
42663;DHT22;44330;51.360;6.686;2022-11-20T10:46:44;5.00;59.80
42663;DHT22;44330;51.360;6.686;2022-11-20T10:49:18;5.20;59.10
42663;DHT22;44330;51.360;6.686;2022-11-20T10:52:17;5.10;60.10
42663;DHT22;44330;51.360;6.686;2022-11-20T10:55:18;5.10;61.50
42663;DHT22;44330;51.360;6.686;2022-11-20T10:58:01;5.10;58.50
42663;DHT22;44330;51.360;6.686;2022-11-20T11:00:31;5.20;52.40
42663;DHT22;44330;51.360;6.686;2022-11-20T11:02:56;5.20;54.60
42663;DHT22;44330;51.360;6.686;2022-11-20T11:06:06;5.20;54.40
42663;DHT22;44330;51.360;6.686;2022-11-20T11:08:37;5.20;55.10
42663;DHT22;44330;51.360;6.686;2022-11-20T11:11:24;5.10;56.00
42663;DHT22;44330;51.360;6.686;2022-11-20T11:14:14;5.10;58.40
42663;DHT22;44330;51.360;6.686;2022-11-20T11:16:54;5.10;60.20
42663;DHT22;44330;51.360;6.686;2022-11-20T11:19:19;5.10;62.90
42663;DHT22;44330;51.360;6.686;2022-11-20T11:21:51;5.20;63.50
42663;DHT22;44330;51.360;6.686;2022-11-20T11:24:28;5.20;64.10
42663;DHT22;44330;51.360;6.686;2022-11-20T11:27:02;5.30;64.60
42663;DHT22;44330;51.360;6.686;2022-11-20T11:29:30;5.40;62.50
42663;DHT22;44330;51.360;6.686;2022-11-20T11:32:08;5.40;60.50
42663;DHT22;44330;51.360;6.686;2022-11-20T11:34:34;5.40;60.30
42663;DHT22;44330;51.360;6.686;2022-11-20T11:37:00;5.40;61.60
42663;DHT22;44330;51.360;6.686;2022-11-20T11:39:29;5.40;60.40
42663;DHT22;44330;51.360;6.686;2022-11-20T11:41:55;5.40;58.50
42663;DHT22;44330;51.360;6.686;2022-11-20T11:44:26;5.50;58.60
42663;DHT22;44330;51.360;6.686;2022-11-20T11:47:21;5.50;56.90
42663;DHT22;44330;51.360;6.686;2022-11-20T11:49:47;5.50;56.60
42663;DHT22;44330;51.360;6.686;2022-11-20T11:52:17;5.50;57.80
42663;DHT22;44330;51.360;6.686;2022-11-20T11:54:48;5.50;56.00
42663;DHT22;44330;51.360;6.686;2022-11-20T12:02:54;5.50;56.70
42663;DHT22;44330;51.360;6.686;2022-11-20T12:06:01;5.50;58.10
42663;DHT22;44330;51.360;6.686;2022-11-20T12:08:30;5.50;58.80
42663;DHT22;44330;51.360;6.686;2022-11-20T12:10:58;5.50;59.80
42663;DHT22;44330;51.360;6.686;2022-11-20T12:13:32;5.60;58.40
42663;DHT22;44330;51.360;6.686;2022-11-20T12:16:03;5.60;58.50
42663;DHT22;44330;51.360;6.686;2022-11-20T12:18:30;5.70;56.50
42663;DHT22;44330;51.360;6.686;2022-11-20T12:21:36;5.70;59.30
42663;DHT22;44330;51.360;6.686;2022-11-20T12:24:28;5.70;57.90
42663;DHT22;44330;51.360;6.686;2022-11-20T12:43:30;5.90;54.50
42663;DHT22;44330;51.360;6.686;2022-11-20T12:47:07;5.80;55.50
42663;DHT22;44330;51.360;6.686;2022-11-20T12:49:41;5.80;57.00
42663;DHT22;44330;51.360;6.686;2022-11-20T12:52:38;5.80;58.70
42663;DHT22;44330;51.360;6.686;2022-11-20T12:55:11;5.80;58.00
42663;DHT22;44330;51.360;6.686;2022-11-20T12:58:10;5.80;54.70
42663;DHT22;44330;51.360;6.686;2022-11-20T13:00:47;5.80;55.20
42663;DHT22;44330;51.360;6.686;2022-11-20T13:03:38;5.80;58.60
42663;DHT22;44330;51.360;6.686;2022-11-20T13:06:18;5.80;61.70
42663;DHT22;44330;51.360;6.686;2022-11-20T13:08:56;5.90;61.80
42663;DHT22;44330;51.360;6.686;2022-11-20T13:11:44;5.90;63.80
42663;DHT22;44330;51.360;6.686;2022-11-20T13:17:21;5.80;68.10
42663;DHT22;44330;51.360;6.686;2022-11-20T13:19:58;5.70;69.00
42663;DHT22;44330;51.360;6.686;2022-11-20T13:22:29;5.60;71.00
42663;DHT22;44330;51.360;6.686;2022-11-20T13:24:55;5.50;71.20
42663;DHT22;44330;51.360;6.686;2022-11-20T13:27:22;5.50;72.30
42663;DHT22;44330;51.360;6.686;2022-11-20T13:30:14;5.50;73.30
42663;DHT22;44330;51.360;6.686;2022-11-20T13:33:09;5.50;74.70
42663;DHT22;44330;51.360;6.686;2022-11-20T13:35:56;5.50;75.40
42663;DHT22;44330;51.360;6.686;2022-11-20T13:38:22;5.50;76.20
42663;DHT22;44330;51.360;6.686;2022-11-20T13:46:08;5.50;76.90
42663;DHT22;44330;51.360;6.686;2022-11-20T13:48:44;5.60;77.40
42663;DHT22;44330;51.360;6.686;2022-11-20T13:54:09;5.50;78.60
42663;DHT22;44330;51.360;6.686;2022-11-20T13:59:33;5.50;79.60
42663;DHT22;44330;51.360;6.686;2022-11-20T14:02:01;5.50;79.50
42663;DHT22;44330;51.360;6.686;2022-11-20T14:04:30;5.40;79.70
42663;DHT22;44330;51.360;6.686;2022-11-20T14:06:58;5.40;80.60
42663;DHT22;44330;51.360;6.686;2022-11-20T14:09:32;5.50;81.40
42663;DHT22;44330;51.360;6.686;2022-11-20T14:11:59;5.50;80.80
42663;DHT22;44330;51.360;6.686;2022-11-20T14:14:26;5.50;81.20
42663;DHT22;44330;51.360;6.686;2022-11-20T14:17:07;5.50;82.20
42663;DHT22;44330;51.360;6.686;2022-11-20T14:19:33;5.60;82.50
42663;DHT22;44330;51.360;6.686;2022-11-20T14:22:21;5.60;82.50
42663;DHT22;44330;51.360;6.686;2022-11-20T14:24:48;5.60;82.00
42663;DHT22;44330;51.360;6.686;2022-11-20T14:27:20;5.60;82.40
42663;DHT22;44330;51.360;6.686;2022-11-20T14:29:47;5.60;82.90
42663;DHT22;44330;51.360;6.686;2022-11-20T14:32:16;5.60;83.00
42663;DHT22;44330;51.360;6.686;2022-11-20T14:34:45;5.60;83.40
42663;DHT22;44330;51.360;6.686;2022-11-20T14:37:13;5.60;83.70
42663;DHT22;44330;51.360;6.686;2022-11-20T14:39:50;5.60;84.10
42663;DHT22;44330;51.360;6.686;2022-11-20T14:42:23;5.60;84.40
42663;DHT22;44330;51.360;6.686;2022-11-20T14:44:50;5.60;84.70
42663;DHT22;44330;51.360;6.686;2022-11-20T14:47:25;5.60;85.20
42663;DHT22;44330;51.360;6.686;2022-11-20T14:49:53;5.60;85.50
42663;DHT22;44330;51.360;6.686;2022-11-20T14:52:25;5.60;85.50
42663;DHT22;44330;51.360;6.686;2022-11-20T14:54:53;5.70;84.70
42663;DHT22;44330;51.360;6.686;2022-11-20T14:57:28;5.60;84.40
42663;DHT22;44330;51.360;6.686;2022-11-20T15:02:46;5.60;85.00
42663;DHT22;44330;51.360;6.686;2022-11-20T15:05:12;5.50;85.30
42663;DHT22;44330;51.360;6.686;2022-11-20T15:07:40;5.50;85.80
42663;DHT22;44330;51.360;6.686;2022-11-20T15:10:13;5.50;85.80
42663;DHT22;44330;51.360;6.686;2022-11-20T15:12:46;5.50;85.90
42663;DHT22;44330;51.360;6.686;2022-11-20T15:15:15;5.40;86.40
42663;DHT22;44330;51.360;6.686;2022-11-20T15:17:42;5.40;86.80
42663;DHT22;44330;51.360;6.686;2022-11-20T15:20:15;5.40;87.00
42663;DHT22;44330;51.360;6.686;2022-11-20T15:25:15;5.40;87.40
42663;DHT22;44330;51.360;6.686;2022-11-20T15:27:42;5.40;87.60
42663;DHT22;44330;51.360;6.686;2022-11-20T15:30:20;5.40;87.40
42663;DHT22;44330;51.360;6.686;2022-11-20T15:32:46;5.40;87.50
42663;DHT22;44330;51.360;6.686;2022-11-20T15:35:13;5.50;87.30
42663;DHT22;44330;51.360;6.686;2022-11-20T15:37:40;5.50;87.10
42663;DHT22;44330;51.360;6.686;2022-11-20T15:40:07;5.50;86.70
42663;DHT22;44330;51.360;6.686;2022-11-20T15:42:33;5.50;86.40
42663;DHT22;44330;51.360;6.686;2022-11-20T15:44:58;5.50;86.30
42663;DHT22;44330;51.360;6.686;2022-11-20T15:47:30;5.60;86.50
42663;DHT22;44330;51.360;6.686;2022-11-20T15:49:56;5.50;86.40
42663;DHT22;44330;51.360;6.686;2022-11-20T15:52:22;5.60;86.90
42663;DHT22;44330;51.360;6.686;2022-11-20T15:54:47;5.50;86.80
42663;DHT22;44330;51.360;6.686;2022-11-20T15:57:13;5.50;87.40
42663;DHT22;44330;51.360;6.686;2022-11-20T15:59:39;5.50;87.80
42663;DHT22;44330;51.360;6.686;2022-11-20T16:02:16;5.50;88.40
42663;DHT22;44330;51.360;6.686;2022-11-20T16:04:41;5.40;88.70
42663;DHT22;44330;51.360;6.686;2022-11-20T16:07:07;5.40;89.30
42663;DHT22;44330;51.360;6.686;2022-11-20T16:09:33;5.40;89.90
42663;DHT22;44330;51.360;6.686;2022-11-20T16:11:59;5.40;90.10
42663;DHT22;44330;51.360;6.686;2022-11-20T16:14:28;5.40;90.40
42663;DHT22;44330;51.360;6.686;2022-11-20T16:17:12;5.50;90.70
42663;DHT22;44330;51.360;6.686;2022-11-20T16:19:38;5.50;90.80
42663;DHT22;44330;51.360;6.686;2022-11-20T16:22:04;5.60;90.80
42663;DHT22;44330;51.360;6.686;2022-11-20T16:24:33;5.60;90.80
42663;DHT22;44330;51.360;6.686;2022-11-20T16:26:58;5.50;90.90
42663;DHT22;44330;51.360;6.686;2022-11-20T16:29:24;5.60;91.00
42663;DHT22;44330;51.360;6.686;2022-11-20T16:31:50;5.60;91.10
42663;DHT22;44330;51.360;6.686;2022-11-20T16:34:16;5.60;91.10
42663;DHT22;44330;51.360;6.686;2022-11-20T16:36:43;5.60;91.10
42663;DHT22;44330;51.360;6.686;2022-11-20T16:39:10;5.60;91.30
42663;DHT22;44330;51.360;6.686;2022-11-20T16:41:36;5.60;91.30
42663;DHT22;44330;51.360;6.686;2022-11-20T16:44:06;5.50;91.30
42663;DHT22;44330;51.360;6.686;2022-11-20T16:46:33;5.60;91.50
42663;DHT22;44330;51.360;6.686;2022-11-20T16:49:08;5.50;91.50
42663;DHT22;44330;51.360;6.686;2022-11-20T16:51:36;5.60;91.60
42663;DHT22;44330;51.360;6.686;2022-11-20T16:54:03;5.50;91.70
42663;DHT22;44330;51.360;6.686;2022-11-20T16:56:29;5.60;91.80
42663;DHT22;44330;51.360;6.686;2022-11-20T16:58:57;5.50;91.90
42663;DHT22;44330;51.360;6.686;2022-11-20T17:01:24;5.60;92.00